sensor_id;sensor_type;location;lat;lon;timestamp;P1;durP1;ratioP1;P2;durP2;ratioP2
8887;SDS011;4480;52.370;9.748;2023-04-15T00:01:13;5.15;;;4.65;;
8887;SDS011;4480;52.370;9.748;2023-04-15T00:03:43;5.45;;;4.85;;
8887;SDS011;4480;52.370;9.748;2023-04-15T00:06:10;7.38;;;4.60;;
8887;SDS011;4480;52.370;9.748;2023-04-15T00:08:37;5.03;;;4.53;;
8887;SDS011;4480;52.370;9.748;2023-04-15T00:11:04;7.07;;;5.22;;
8887;SDS011;4480;52.370;9.748;2023-04-15T00:13:32;6.00;;;4.85;;
8887;SDS011;4480;52.370;9.748;2023-04-15T00:15:59;7.00;;;4.90;;
8887;SDS011;4480;52.370;9.748;2023-04-15T00:18:26;5.40;;;4.90;;
8887;SDS011;4480;52.370;9.748;2023-04-15T00:20:53;5.65;;;4.97;;
8887;SDS011;4480;52.370;9.748;2023-04-15T00:23:20;4.68;;;4.25;;
8887;SDS011;4480;52.370;9.748;2023-04-15T00:25:47;5.72;;;4.68;;
8887;SDS011;4480;52.370;9.748;2023-04-15T00:28:15;6.18;;;5.57;;
8887;SDS011;4480;52.370;9.748;2023-04-15T00:30:43;5.20;;;4.70;;
8887;SDS011;4480;52.370;9.748;2023-04-15T00:33:11;5.55;;;4.90;;
8887;SDS011;4480;52.370;9.748;2023-04-15T00:35:38;5.75;;;5.10;;
8887;SDS011;4480;52.370;9.748;2023-04-15T00:38:05;6.35;;;5.68;;
8887;SDS011;4480;52.370;9.748;2023-04-15T00:40:33;5.70;;;5.10;;
8887;SDS011;4480;52.370;9.748;2023-04-15T00:43:00;8.07;;;5.63;;
8887;SDS011;4480;52.370;9.748;2023-04-15T00:45:28;7.45;;;5.57;;
8887;SDS011;4480;52.370;9.748;2023-04-15T00:47:56;5.07;;;4.53;;
8887;SDS011;4480;52.370;9.748;2023-04-15T00:50:24;7.00;;;6.25;;
8887;SDS011;4480;52.370;9.748;2023-04-15T00:52:51;6.95;;;6.25;;
8887;SDS011;4480;52.370;9.748;2023-04-15T00:55:17;6.90;;;5.78;;
8887;SDS011;4480;52.370;9.748;2023-04-15T00:57:44;7.43;;;6.43;;
8887;SDS011;4480;52.370;9.748;2023-04-15T01:00:12;10.88;;;6.57;;
8887;SDS011;4480;52.370;9.748;2023-04-15T01:02:40;8.63;;;6.65;;
8887;SDS011;4480;52.370;9.748;2023-04-15T01:05:09;9.20;;;7.28;;
8887;SDS011;4480;52.370;9.748;2023-04-15T01:07:35;10.75;;;6.40;;
8887;SDS011;4480;52.370;9.748;2023-04-15T01:10:02;10.32;;;7.32;;
8887;SDS011;4480;52.370;9.748;2023-04-15T01:12:30;8.15;;;7.32;;
8887;SDS011;4480;52.370;9.748;2023-04-15T01:14:58;10.13;;;8.00;;
8887;SDS011;4480;52.370;9.748;2023-04-15T01:17:26;10.98;;;7.60;;
8887;SDS011;4480;52.370;9.748;2023-04-15T01:19:54;11.35;;;7.10;;
8887;SDS011;4480;52.370;9.748;2023-04-15T01:22:22;13.32;;;8.43;;
8887;SDS011;4480;52.370;9.748;2023-04-15T01:24:53;11.98;;;7.55;;
8887;SDS011;4480;52.370;9.748;2023-04-15T01:27:24;11.80;;;8.25;;
8887;SDS011;4480;52.370;9.748;2023-04-15T01:29:50;11.85;;;7.97;;
8887;SDS011;4480;52.370;9.748;2023-04-15T01:32:17;12.00;;;9.57;;
8887;SDS011;4480;52.370;9.748;2023-04-15T01:34:44;10.02;;;7.78;;
8887;SDS011;4480;52.370;9.748;2023-04-15T01:37:11;13.75;;;8.93;;
8887;SDS011;4480;52.370;9.748;2023-04-15T01:39:38;9.20;;;7.57;;
8887;SDS011;4480;52.370;9.748;2023-04-15T01:42:05;9.63;;;8.55;;
8887;SDS011;4480;52.370;9.748;2023-04-15T01:44:33;13.27;;;8.90;;
8887;SDS011;4480;52.370;9.748;2023-04-15T01:47:00;12.25;;;8.90;;
8887;SDS011;4480;52.370;9.748;2023-04-15T01:49:27;13.23;;;9.07;;
8887;SDS011;4480;52.370;9.748;2023-04-15T01:51:54;13.35;;;9.73;;
8887;SDS011;4480;52.370;9.748;2023-04-15T01:54:20;11.45;;;9.18;;
8887;SDS011;4480;52.370;9.748;2023-04-15T01:56:47;10.82;;;8.18;;
8887;SDS011;4480;52.370;9.748;2023-04-15T01:59:14;12.45;;;9.32;;
8887;SDS011;4480;52.370;9.748;2023-04-15T02:01:42;11.75;;;9.75;;
8887;SDS011;4480;52.370;9.748;2023-04-15T02:04:09;12.77;;;8.63;;
8887;SDS011;4480;52.370;9.748;2023-04-15T02:06:40;8.55;;;7.22;;
8887;SDS011;4480;52.370;9.748;2023-04-15T02:09:07;12.00;;;9.25;;
8887;SDS011;4480;52.370;9.748;2023-04-15T02:11:34;10.82;;;8.23;;
8887;SDS011;4480;52.370;9.748;2023-04-15T02:14:01;11.00;;;8.73;;
8887;SDS011;4480;52.370;9.748;2023-04-15T02:16:29;10.73;;;8.50;;
8887;SDS011;4480;52.370;9.748;2023-04-15T02:18:58;12.80;;;9.45;;
8887;SDS011;4480;52.370;9.748;2023-04-15T02:21:26;10.88;;;7.82;;
8887;SDS011;4480;52.370;9.748;2023-04-15T02:23:52;11.40;;;8.68;;
8887;SDS011;4480;52.370;9.748;2023-04-15T02:26:20;11.82;;;8.30;;
8887;SDS011;4480;52.370;9.748;2023-04-15T02:28:47;10.85;;;8.93;;
8887;SDS011;4480;52.370;9.748;2023-04-15T02:31:15;12.13;;;8.73;;
8887;SDS011;4480;52.370;9.748;2023-04-15T02:33:42;12.95;;;9.55;;
8887;SDS011;4480;52.370;9.748;2023-04-15T02:36:10;15.65;;;10.35;;
8887;SDS011;4480;52.370;9.748;2023-04-15T02:38:37;12.52;;;9.35;;
8887;SDS011;4480;52.370;9.748;2023-04-15T02:41:06;15.95;;;9.43;;
8887;SDS011;4480;52.370;9.748;2023-04-15T02:43:33;12.32;;;8.90;;
8887;SDS011;4480;52.370;9.748;2023-04-15T02:46:00;13.48;;;9.25;;
8887;SDS011;4480;52.370;9.748;2023-04-15T02:48:27;12.82;;;9.32;;
8887;SDS011;4480;52.370;9.748;2023-04-15T02:53:41;14.25;;;10.05;;
8887;SDS011;4480;52.370;9.748;2023-04-15T02:56:08;12.82;;;9.20;;
8887;SDS011;4480;52.370;9.748;2023-04-15T02:58:35;13.65;;;9.02;;
8887;SDS011;4480;52.370;9.748;2023-04-15T03:01:02;12.93;;;9.95;;
8887;SDS011;4480;52.370;9.748;2023-04-15T03:03:29;13.57;;;10.23;;
8887;SDS011;4480;52.370;9.748;2023-04-15T03:05:56;14.32;;;11.10;;
8887;SDS011;4480;52.370;9.748;2023-04-15T03:08:24;14.55;;;11.80;;
8887;SDS011;4480;52.370;9.748;2023-04-15T03:10:51;13.18;;;10.43;;
8887;SDS011;4480;52.370;9.748;2023-04-15T03:13:18;15.88;;;10.55;;
8887;SDS011;4480;52.370;9.748;2023-04-15T03:15:45;16.83;;;10.93;;
8887;SDS011;4480;52.370;9.748;2023-04-15T03:18:12;14.10;;;10.23;;
8887;SDS011;4480;52.370;9.748;2023-04-15T03:20:39;14.88;;;11.07;;
8887;SDS011;4480;52.370;9.748;2023-04-15T03:23:06;16.48;;;11.30;;
8887;SDS011;4480;52.370;9.748;2023-04-15T03:25:34;17.58;;;13.10;;
8887;SDS011;4480;52.370;9.748;2023-04-15T03:28:02;18.35;;;13.60;;
8887;SDS011;4480;52.370;9.748;2023-04-15T03:30:29;16.08;;;11.80;;
8887;SDS011;4480;52.370;9.748;2023-04-15T03:32:56;18.48;;;12.30;;
8887;SDS011;4480;52.370;9.748;2023-04-15T03:35:22;16.38;;;12.60;;
8887;SDS011;4480;52.370;9.748;2023-04-15T03:37:49;17.92;;;12.38;;
8887;SDS011;4480;52.370;9.748;2023-04-15T03:40:16;19.10;;;12.25;;
8887;SDS011;4480;52.370;9.748;2023-04-15T03:42:44;22.48;;;12.68;;
8887;SDS011;4480;52.370;9.748;2023-04-15T03:45:11;17.42;;;12.70;;
8887;SDS011;4480;52.370;9.748;2023-04-15T03:47:38;18.60;;;13.13;;
8887;SDS011;4480;52.370;9.748;2023-04-15T03:50:05;19.98;;;13.55;;
8887;SDS011;4480;52.370;9.748;2023-04-15T03:52:33;22.90;;;14.68;;
8887;SDS011;4480;52.370;9.748;2023-04-15T03:54:59;22.30;;;14.65;;
8887;SDS011;4480;52.370;9.748;2023-04-15T03:57:26;22.30;;;14.25;;
8887;SDS011;4480;52.370;9.748;2023-04-15T03:59:55;21.20;;;13.20;;
8887;SDS011;4480;52.370;9.748;2023-04-15T04:02:22;18.35;;;12.88;;
8887;SDS011;4480;52.370;9.748;2023-04-15T04:04:49;22.23;;;14.00;;
8887;SDS011;4480;52.370;9.748;2023-04-15T04:07:16;22.75;;;15.50;;
8887;SDS011;4480;52.370;9.748;2023-04-15T04:11:31;21.60;;;13.93;;
8887;SDS011;4480;52.370;9.748;2023-04-15T04:13:58;23.27;;;15.75;;
8887;SDS011;4480;52.370;9.748;2023-04-15T04:16:25;24.75;;;15.48;;
8887;SDS011;4480;52.370;9.748;2023-04-15T04:18:51;22.95;;;15.27;;
8887;SDS011;4480;52.370;9.748;2023-04-15T04:21:18;28.35;;;17.33;;
8887;SDS011;4480;52.370;9.748;2023-04-15T04:23:45;19.48;;;14.30;;
8887;SDS011;4480;52.370;9.748;2023-04-15T04:26:12;24.08;;;15.05;;
8887;SDS011;4480;52.370;9.748;2023-04-15T04:28:40;25.98;;;16.88;;
8887;SDS011;4480;52.370;9.748;2023-04-15T04:31:07;25.65;;;16.45;;
8887;SDS011;4480;52.370;9.748;2023-04-15T04:33:34;22.98;;;14.65;;
8887;SDS011;4480;52.370;9.748;2023-04-15T04:36:01;23.98;;;14.60;;
8887;SDS011;4480;52.370;9.748;2023-04-15T04:38:28;24.48;;;15.50;;
8887;SDS011;4480;52.370;9.748;2023-04-15T04:40:55;22.50;;;14.90;;
8887;SDS011;4480;52.370;9.748;2023-04-15T04:43:21;31.75;;;16.13;;
8887;SDS011;4480;52.370;9.748;2023-04-15T04:45:50;26.42;;;17.42;;
8887;SDS011;4480;52.370;9.748;2023-04-15T04:48:17;26.20;;;16.55;;
8887;SDS011;4480;52.370;9.748;2023-04-15T04:50:43;24.17;;;16.23;;
8887;SDS011;4480;52.370;9.748;2023-04-15T04:53:11;27.48;;;15.95;;
8887;SDS011;4480;52.370;9.748;2023-04-15T04:55:38;25.33;;;16.92;;
8887;SDS011;4480;52.370;9.748;2023-04-15T04:58:04;27.48;;;16.05;;
8887;SDS011;4480;52.370;9.748;2023-04-15T05:00:31;26.25;;;17.60;;
8887;SDS011;4480;52.370;9.748;2023-04-15T05:02:59;29.67;;;17.77;;
8887;SDS011;4480;52.370;9.748;2023-04-15T05:05:26;28.92;;;16.80;;
8887;SDS011;4480;52.370;9.748;2023-04-15T05:07:53;27.00;;;18.05;;
8887;SDS011;4480;52.370;9.748;2023-04-15T05:10:20;30.95;;;17.73;;
8887;SDS011;4480;52.370;9.748;2023-04-15T05:12:47;29.65;;;17.50;;
8887;SDS011;4480;52.370;9.748;2023-04-15T05:15:14;24.95;;;16.42;;
8887;SDS011;4480;52.370;9.748;2023-04-15T05:17:41;30.80;;;17.85;;
8887;SDS011;4480;52.370;9.748;2023-04-15T05:20:10;30.55;;;16.80;;
8887;SDS011;4480;52.370;9.748;2023-04-15T05:22:38;26.08;;;17.27;;
8887;SDS011;4480;52.370;9.748;2023-04-15T05:25:08;27.17;;;16.00;;
8887;SDS011;4480;52.370;9.748;2023-04-15T05:27:36;26.40;;;16.27;;
8887;SDS011;4480;52.370;9.748;2023-04-15T05:30:03;27.80;;;14.35;;
8887;SDS011;4480;52.370;9.748;2023-04-15T05:32:31;28.33;;;16.65;;
8887;SDS011;4480;52.370;9.748;2023-04-15T05:34:58;27.17;;;15.85;;
8887;SDS011;4480;52.370;9.748;2023-04-15T05:37:26;29.73;;;16.40;;
8887;SDS011;4480;52.370;9.748;2023-04-15T05:39:53;26.25;;;16.20;;
8887;SDS011;4480;52.370;9.748;2023-04-15T05:42:20;26.85;;;16.85;;
8887;SDS011;4480;52.370;9.748;2023-04-15T05:44:47;22.23;;;14.30;;
8887;SDS011;4480;52.370;9.748;2023-04-15T05:47:14;29.70;;;17.63;;
8887;SDS011;4480;52.370;9.748;2023-04-15T05:49:41;22.70;;;14.45;;
8887;SDS011;4480;52.370;9.748;2023-04-15T05:52:08;23.73;;;16.45;;
8887;SDS011;4480;52.370;9.748;2023-04-15T05:54:36;23.75;;;15.00;;
8887;SDS011;4480;52.370;9.748;2023-04-15T05:57:03;20.67;;;13.70;;
8887;SDS011;4480;52.370;9.748;2023-04-15T05:59:30;22.85;;;14.45;;
8887;SDS011;4480;52.370;9.748;2023-04-15T06:01:57;22.55;;;14.48;;
8887;SDS011;4480;52.370;9.748;2023-04-15T06:04:24;23.95;;;14.10;;
8887;SDS011;4480;52.370;9.748;2023-04-15T06:06:51;28.50;;;15.00;;
8887;SDS011;4480;52.370;9.748;2023-04-15T06:09:17;18.55;;;13.68;;
8887;SDS011;4480;52.370;9.748;2023-04-15T06:11:46;21.42;;;12.77;;
8887;SDS011;4480;52.370;9.748;2023-04-15T06:14:13;22.27;;;13.85;;
8887;SDS011;4480;52.370;9.748;2023-04-15T06:16:40;19.98;;;12.27;;
8887;SDS011;4480;52.370;9.748;2023-04-15T06:19:07;20.08;;;11.90;;
8887;SDS011;4480;52.370;9.748;2023-04-15T06:21:33;18.15;;;12.10;;
8887;SDS011;4480;52.370;9.748;2023-04-15T06:24:00;19.52;;;12.18;;
8887;SDS011;4480;52.370;9.748;2023-04-15T06:26:27;15.20;;;10.13;;
8887;SDS011;4480;52.370;9.748;2023-04-15T06:28:56;17.67;;;10.55;;
8887;SDS011;4480;52.370;9.748;2023-04-15T06:31:23;19.73;;;12.23;;
8887;SDS011;4480;52.370;9.748;2023-04-15T06:33:50;13.38;;;9.70;;
8887;SDS011;4480;52.370;9.748;2023-04-15T06:36:17;14.63;;;10.13;;
8887;SDS011;4480;52.370;9.748;2023-04-15T06:38:43;14.25;;;10.70;;
8887;SDS011;4480;52.370;9.748;2023-04-15T06:41:10;18.05;;;10.52;;
8887;SDS011;4480;52.370;9.748;2023-04-15T06:43:37;15.07;;;9.95;;
8887;SDS011;4480;52.370;9.748;2023-04-15T06:46:05;15.50;;;10.52;;
8887;SDS011;4480;52.370;9.748;2023-04-15T06:48:32;12.55;;;8.05;;
8887;SDS011;4480;52.370;9.748;2023-04-15T06:50:59;13.75;;;8.70;;
8887;SDS011;4480;52.370;9.748;2023-04-15T06:53:27;14.05;;;8.20;;
8887;SDS011;4480;52.370;9.748;2023-04-15T06:55:54;14.13;;;8.95;;
8887;SDS011;4480;52.370;9.748;2023-04-15T06:58:21;16.77;;;10.57;;
8887;SDS011;4480;52.370;9.748;2023-04-15T07:00:48;15.48;;;9.38;;
8887;SDS011;4480;52.370;9.748;2023-04-15T07:03:16;13.30;;;8.10;;
8887;SDS011;4480;52.370;9.748;2023-04-15T07:05:43;13.85;;;9.80;;
8887;SDS011;4480;52.370;9.748;2023-04-15T07:08:10;15.38;;;9.18;;
8887;SDS011;4480;52.370;9.748;2023-04-15T07:10:38;11.88;;;7.80;;
8887;SDS011;4480;52.370;9.748;2023-04-15T07:13:04;13.93;;;9.43;;
8887;SDS011;4480;52.370;9.748;2023-04-15T07:15:32;13.82;;;8.65;;
8887;SDS011;4480;52.370;9.748;2023-04-15T07:17:59;12.65;;;8.10;;
8887;SDS011;4480;52.370;9.748;2023-04-15T07:20:28;10.63;;;7.10;;
8887;SDS011;4480;52.370;9.748;2023-04-15T07:22:54;13.10;;;8.23;;
8887;SDS011;4480;52.370;9.748;2023-04-15T07:25:21;10.68;;;8.02;;
8887;SDS011;4480;52.370;9.748;2023-04-15T07:27:48;11.18;;;8.20;;
8887;SDS011;4480;52.370;9.748;2023-04-15T07:30:15;11.82;;;8.23;;
8887;SDS011;4480;52.370;9.748;2023-04-15T07:32:42;11.63;;;7.07;;
8887;SDS011;4480;52.370;9.748;2023-04-15T07:35:09;15.00;;;8.25;;
8887;SDS011;4480;52.370;9.748;2023-04-15T07:37:37;10.18;;;7.28;;
8887;SDS011;4480;52.370;9.748;2023-04-15T07:40:04;12.60;;;6.97;;
8887;SDS011;4480;52.370;9.748;2023-04-15T07:42:33;8.70;;;6.25;;
8887;SDS011;4480;52.370;9.748;2023-04-15T07:45:00;8.55;;;6.00;;
8887;SDS011;4480;52.370;9.748;2023-04-15T07:47:27;7.30;;;5.97;;
8887;SDS011;4480;52.370;9.748;2023-04-15T07:49:54;8.60;;;5.88;;
8887;SDS011;4480;52.370;9.748;2023-04-15T07:52:21;13.95;;;6.55;;
8887;SDS011;4480;52.370;9.748;2023-04-15T07:54:49;9.82;;;6.40;;
8887;SDS011;4480;52.370;9.748;2023-04-15T07:57:16;12.48;;;6.72;;
8887;SDS011;4480;52.370;9.748;2023-04-15T07:59:43;10.75;;;6.85;;
8887;SDS011;4480;52.370;9.748;2023-04-15T08:02:10;8.07;;;5.95;;
8887;SDS011;4480;52.370;9.748;2023-04-15T08:04:37;10.65;;;6.30;;
8887;SDS011;4480;52.370;9.748;2023-04-15T08:07:04;7.70;;;5.97;;
8887;SDS011;4480;52.370;9.748;2023-04-15T08:09:31;9.02;;;6.40;;
8887;SDS011;4480;52.370;9.748;2023-04-15T08:11:59;11.23;;;6.78;;
8887;SDS011;4480;52.370;9.748;2023-04-15T08:14:26;7.20;;;6.32;;
8887;SDS011;4480;52.370;9.748;2023-04-15T08:16:52;9.55;;;6.07;;
8887;SDS011;4480;52.370;9.748;2023-04-15T08:19:19;9.32;;;6.93;;
8887;SDS011;4480;52.370;9.748;2023-04-15T08:21:47;7.53;;;5.65;;
8887;SDS011;4480;52.370;9.748;2023-04-15T08:24:14;7.32;;;4.95;;
8887;SDS011;4480;52.370;9.748;2023-04-15T08:26:40;8.13;;;5.63;;
8887;SDS011;4480;52.370;9.748;2023-04-15T08:29:09;7.55;;;5.60;;
8887;SDS011;4480;52.370;9.748;2023-04-15T08:31:35;8.07;;;5.28;;
8887;SDS011;4480;52.370;9.748;2023-04-15T08:34:02;9.18;;;4.90;;
8887;SDS011;4480;52.370;9.748;2023-04-15T08:36:29;7.03;;;5.75;;
8887;SDS011;4480;52.370;9.748;2023-04-15T08:38:57;7.93;;;5.25;;
8887;SDS011;4480;52.370;9.748;2023-04-15T08:41:25;10.30;;;5.60;;
8887;SDS011;4480;52.370;9.748;2023-04-15T08:43:56;7.30;;;5.20;;
8887;SDS011;4480;52.370;9.748;2023-04-15T08:46:25;9.65;;;5.90;;
8887;SDS011;4480;52.370;9.748;2023-04-15T08:48:52;6.15;;;5.15;;
8887;SDS011;4480;52.370;9.748;2023-04-15T08:51:23;6.38;;;4.82;;
8887;SDS011;4480;52.370;9.748;2023-04-15T08:53:51;7.55;;;5.35;;
8887;SDS011;4480;52.370;9.748;2023-04-15T08:56:18;7.00;;;4.60;;
8887;SDS011;4480;52.370;9.748;2023-04-15T08:58:48;5.35;;;4.55;;
8887;SDS011;4480;52.370;9.748;2023-04-15T09:01:16;6.13;;;4.85;;
8887;SDS011;4480;52.370;9.748;2023-04-15T09:03:45;6.13;;;4.57;;
8887;SDS011;4480;52.370;9.748;2023-04-15T09:06:15;7.55;;;4.75;;
8887;SDS011;4480;52.370;9.748;2023-04-15T09:08:42;8.65;;;5.13;;
8887;SDS011;4480;52.370;9.748;2023-04-15T09:11:09;5.22;;;4.28;;
8887;SDS011;4480;52.370;9.748;2023-04-15T09:13:36;7.10;;;5.00;;
8887;SDS011;4480;52.370;9.748;2023-04-15T09:16:03;6.68;;;5.40;;
8887;SDS011;4480;52.370;9.748;2023-04-15T09:18:32;7.72;;;6.05;;
8887;SDS011;4480;52.370;9.748;2023-04-15T09:21:05;6.70;;;5.35;;
8887;SDS011;4480;52.370;9.748;2023-04-15T09:23:35;5.72;;;5.10;;
8887;SDS011;4480;52.370;9.748;2023-04-15T09:26:03;8.25;;;6.07;;
8887;SDS011;4480;52.370;9.748;2023-04-15T09:28:30;8.02;;;6.05;;
8887;SDS011;4480;52.370;9.748;2023-04-15T09:31:00;8.07;;;5.50;;
8887;SDS011;4480;52.370;9.748;2023-04-15T09:33:28;7.28;;;5.25;;
8887;SDS011;4480;52.370;9.748;2023-04-15T09:35:55;8.10;;;5.97;;
8887;SDS011;4480;52.370;9.748;2023-04-15T09:38:25;7.28;;;5.80;;
8887;SDS011;4480;52.370;9.748;2023-04-15T09:40:52;9.15;;;6.75;;
8887;SDS011;4480;52.370;9.748;2023-04-15T09:43:19;10.27;;;7.03;;
8887;SDS011;4480;52.370;9.748;2023-04-15T09:45:47;9.32;;;7.78;;
8887;SDS011;4480;52.370;9.748;2023-04-15T09:48:16;10.85;;;7.18;;
8887;SDS011;4480;52.370;9.748;2023-04-15T09:50:45;10.27;;;7.10;;
8887;SDS011;4480;52.370;9.748;2023-04-15T09:53:14;8.68;;;6.60;;
8887;SDS011;4480;52.370;9.748;2023-04-15T09:55:45;14.05;;;8.40;;
8887;SDS011;4480;52.370;9.748;2023-04-15T09:58:18;14.52;;;7.72;;
8887;SDS011;4480;52.370;9.748;2023-04-15T10:00:46;9.95;;;7.53;;
8887;SDS011;4480;52.370;9.748;2023-04-15T10:03:14;11.75;;;9.27;;
8887;SDS011;4480;52.370;9.748;2023-04-15T10:05:44;11.45;;;8.60;;
8887;SDS011;4480;52.370;9.748;2023-04-15T10:08:13;11.00;;;8.70;;
8887;SDS011;4480;52.370;9.748;2023-04-15T10:10:41;12.63;;;8.68;;
8887;SDS011;4480;52.370;9.748;2023-04-15T10:13:09;13.27;;;8.80;;
8887;SDS011;4480;52.370;9.748;2023-04-15T10:15:36;12.98;;;8.82;;
8887;SDS011;4480;52.370;9.748;2023-04-15T10:18:04;14.93;;;8.98;;
8887;SDS011;4480;52.370;9.748;2023-04-15T10:20:32;15.05;;;9.43;;
8887;SDS011;4480;52.370;9.748;2023-04-15T10:23:00;18.65;;;10.93;;
8887;SDS011;4480;52.370;9.748;2023-04-15T10:25:27;15.45;;;10.25;;
8887;SDS011;4480;52.370;9.748;2023-04-15T10:27:55;17.67;;;10.95;;
8887;SDS011;4480;52.370;9.748;2023-04-15T10:30:24;16.80;;;11.32;;
8887;SDS011;4480;52.370;9.748;2023-04-15T10:32:51;16.80;;;10.73;;
8887;SDS011;4480;52.370;9.748;2023-04-15T10:35:19;19.67;;;13.15;;
8887;SDS011;4480;52.370;9.748;2023-04-15T10:37:47;23.17;;;13.45;;
8887;SDS011;4480;52.370;9.748;2023-04-15T10:40:24;20.38;;;13.00;;
8887;SDS011;4480;52.370;9.748;2023-04-15T10:42:53;19.88;;;13.73;;
8887;SDS011;4480;52.370;9.748;2023-04-15T10:45:20;24.45;;;14.20;;
8887;SDS011;4480;52.370;9.748;2023-04-15T10:47:52;28.20;;;14.07;;
8887;SDS011;4480;52.370;9.748;2023-04-15T10:50:21;22.80;;;16.13;;
8887;SDS011;4480;52.370;9.748;2023-04-15T10:52:51;24.27;;;14.93;;
8887;SDS011;4480;52.370;9.748;2023-04-15T10:55:18;22.65;;;13.70;;
8887;SDS011;4480;52.370;9.748;2023-04-15T10:57:50;23.42;;;15.30;;
8887;SDS011;4480;52.370;9.748;2023-04-15T11:00:19;25.83;;;16.73;;
8887;SDS011;4480;52.370;9.748;2023-04-15T11:02:52;27.92;;;16.30;;
8887;SDS011;4480;52.370;9.748;2023-04-15T11:05:21;25.13;;;15.73;;
8887;SDS011;4480;52.370;9.748;2023-04-15T11:07:49;24.23;;;13.88;;
8887;SDS011;4480;52.370;9.748;2023-04-15T11:13:27;32.50;;;17.48;;
8887;SDS011;4480;52.370;9.748;2023-04-15T11:16:00;26.25;;;16.38;;
8887;SDS011;4480;52.370;9.748;2023-04-15T11:18:29;31.92;;;18.48;;
8887;SDS011;4480;52.370;9.748;2023-04-15T11:20:58;32.80;;;18.33;;
8887;SDS011;4480;52.370;9.748;2023-04-15T11:23:27;36.60;;;19.50;;
8887;SDS011;4480;52.370;9.748;2023-04-15T11:25:55;31.63;;;20.42;;
8887;SDS011;4480;52.370;9.748;2023-04-15T11:28:24;34.10;;;18.23;;
8887;SDS011;4480;52.370;9.748;2023-04-15T11:30:53;38.97;;;20.23;;
8887;SDS011;4480;52.370;9.748;2023-04-15T11:33:20;33.65;;;18.77;;
8887;SDS011;4480;52.370;9.748;2023-04-15T11:35:49;31.02;;;19.00;;
8887;SDS011;4480;52.370;9.748;2023-04-15T11:38:18;39.03;;;20.83;;
8887;SDS011;4480;52.370;9.748;2023-04-15T11:40:45;34.88;;;22.00;;
8887;SDS011;4480;52.370;9.748;2023-04-15T11:43:12;34.00;;;20.95;;
8887;SDS011;4480;52.370;9.748;2023-04-15T11:45:50;34.88;;;19.92;;
8887;SDS011;4480;52.370;9.748;2023-04-15T11:48:18;35.00;;;20.90;;
8887;SDS011;4480;52.370;9.748;2023-04-15T11:50:53;34.65;;;21.77;;
8887;SDS011;4480;52.370;9.748;2023-04-15T11:53:20;38.17;;;19.75;;
8887;SDS011;4480;52.370;9.748;2023-04-15T11:55:48;37.70;;;22.20;;
8887;SDS011;4480;52.370;9.748;2023-04-15T11:58:17;39.08;;;23.48;;
8887;SDS011;4480;52.370;9.748;2023-04-15T12:00:45;38.55;;;22.42;;
8887;SDS011;4480;52.370;9.748;2023-04-15T12:03:15;41.20;;;23.40;;
8887;SDS011;4480;52.370;9.748;2023-04-15T12:08:48;47.03;;;24.77;;
8887;SDS011;4480;52.370;9.748;2023-04-15T12:11:27;38.40;;;22.25;;
8887;SDS011;4480;52.370;9.748;2023-04-15T12:13:56;41.80;;;25.13;;
8887;SDS011;4480;52.370;9.748;2023-04-15T12:16:24;41.50;;;24.17;;
8887;SDS011;4480;52.370;9.748;2023-04-15T12:18:53;39.45;;;23.40;;
8887;SDS011;4480;52.370;9.748;2023-04-15T12:21:24;41.72;;;24.95;;
8887;SDS011;4480;52.370;9.748;2023-04-15T12:23:53;43.60;;;25.23;;
8887;SDS011;4480;52.370;9.748;2023-04-15T12:26:24;45.65;;;26.00;;
8887;SDS011;4480;52.370;9.748;2023-04-15T12:28:53;52.10;;;26.65;;
8887;SDS011;4480;52.370;9.748;2023-04-15T12:31:20;37.38;;;23.23;;
8887;SDS011;4480;52.370;9.748;2023-04-15T12:33:47;49.00;;;26.92;;
8887;SDS011;4480;52.370;9.748;2023-04-15T12:36:15;50.55;;;28.50;;
8887;SDS011;4480;52.370;9.748;2023-04-15T12:38:43;47.60;;;27.27;;
8887;SDS011;4480;52.370;9.748;2023-04-15T12:41:10;49.78;;;27.35;;
8887;SDS011;4480;52.370;9.748;2023-04-15T12:43:36;47.88;;;26.98;;
8887;SDS011;4480;52.370;9.748;2023-04-15T12:46:03;44.60;;;27.38;;
8887;SDS011;4480;52.370;9.748;2023-04-15T12:48:31;47.75;;;28.73;;
8887;SDS011;4480;52.370;9.748;2023-04-15T12:50:58;48.47;;;28.67;;
8887;SDS011;4480;52.370;9.748;2023-04-15T12:53:25;52.90;;;28.30;;
8887;SDS011;4480;52.370;9.748;2023-04-15T12:55:54;50.70;;;29.38;;
8887;SDS011;4480;52.370;9.748;2023-04-15T12:58:20;51.20;;;30.55;;
8887;SDS011;4480;52.370;9.748;2023-04-15T13:00:47;46.80;;;29.07;;
8887;SDS011;4480;52.370;9.748;2023-04-15T13:03:14;51.50;;;29.05;;
8887;SDS011;4480;52.370;9.748;2023-04-15T13:05:42;43.20;;;27.87;;
8887;SDS011;4480;52.370;9.748;2023-04-15T13:08:08;45.80;;;30.27;;
8887;SDS011;4480;52.370;9.748;2023-04-15T13:10:35;45.30;;;28.27;;
8887;SDS011;4480;52.370;9.748;2023-04-15T13:13:04;46.63;;;31.17;;
8887;SDS011;4480;52.370;9.748;2023-04-15T13:15:31;43.43;;;27.30;;
8887;SDS011;4480;52.370;9.748;2023-04-15T13:17:57;47.97;;;26.80;;
8887;SDS011;4480;52.370;9.748;2023-04-15T13:20:25;41.53;;;26.00;;
8887;SDS011;4480;52.370;9.748;2023-04-15T13:22:52;37.43;;;23.97;;
8887;SDS011;4480;52.370;9.748;2023-04-15T13:25:19;36.37;;;23.83;;
8887;SDS011;4480;52.370;9.748;2023-04-15T13:27:45;34.70;;;25.80;;
8887;SDS011;4480;52.370;9.748;2023-04-15T13:30:14;34.70;;;23.50;;
8887;SDS011;4480;52.370;9.748;2023-04-15T13:32:41;35.17;;;23.20;;
8887;SDS011;4480;52.370;9.748;2023-04-15T13:35:08;32.03;;;22.20;;
8887;SDS011;4480;52.370;9.748;2023-04-15T13:37:35;30.73;;;21.83;;
8887;SDS011;4480;52.370;9.748;2023-04-15T13:40:02;24.57;;;18.20;;
8887;SDS011;4480;52.370;9.748;2023-04-15T13:42:31;27.60;;;20.80;;
8887;SDS011;4480;52.370;9.748;2023-04-15T13:44:58;32.20;;;22.53;;
8887;SDS011;4480;52.370;9.748;2023-04-15T13:47:26;25.97;;;19.67;;
8887;SDS011;4480;52.370;9.748;2023-04-15T13:49:53;24.23;;;17.87;;
8887;SDS011;4480;52.370;9.748;2023-04-15T13:52:20;27.90;;;19.90;;
8887;SDS011;4480;52.370;9.748;2023-04-15T13:54:47;22.83;;;17.37;;
8887;SDS011;4480;52.370;9.748;2023-04-15T13:57:14;34.43;;;19.50;;
8887;SDS011;4480;52.370;9.748;2023-04-15T13:59:41;25.27;;;17.60;;
8887;SDS011;4480;52.370;9.748;2023-04-15T14:02:08;23.50;;;16.97;;
8887;SDS011;4480;52.370;9.748;2023-04-15T14:04:36;26.17;;;18.80;;
8887;SDS011;4480;52.370;9.748;2023-04-15T14:07:03;25.90;;;17.33;;
8887;SDS011;4480;52.370;9.748;2023-04-15T14:09:29;21.50;;;16.00;;
8887;SDS011;4480;52.370;9.748;2023-04-15T14:11:56;24.50;;;18.43;;
8887;SDS011;4480;52.370;9.748;2023-04-15T14:14:24;25.40;;;17.63;;
8887;SDS011;4480;52.370;9.748;2023-04-15T14:16:50;23.10;;;16.63;;
8887;SDS011;4480;52.370;9.748;2023-04-15T14:19:17;21.50;;;15.37;;
8887;SDS011;4480;52.370;9.748;2023-04-15T14:21:45;22.40;;;17.67;;
8887;SDS011;4480;52.370;9.748;2023-04-15T14:24:12;22.10;;;16.50;;
8887;SDS011;4480;52.370;9.748;2023-04-15T14:26:39;21.33;;;14.70;;
8887;SDS011;4480;52.370;9.748;2023-04-15T14:29:07;23.00;;;15.73;;
8887;SDS011;4480;52.370;9.748;2023-04-15T14:31:35;22.67;;;17.77;;
8887;SDS011;4480;52.370;9.748;2023-04-15T14:34:02;22.80;;;16.93;;
8887;SDS011;4480;52.370;9.748;2023-04-15T14:36:29;23.60;;;17.50;;
8887;SDS011;4480;52.370;9.748;2023-04-15T14:38:57;19.40;;;15.30;;
8887;SDS011;4480;52.370;9.748;2023-04-15T14:41:24;23.50;;;16.43;;
8887;SDS011;4480;52.370;9.748;2023-04-15T14:43:51;21.70;;;16.00;;
8887;SDS011;4480;52.370;9.748;2023-04-15T14:46:18;19.30;;;16.40;;
8887;SDS011;4480;52.370;9.748;2023-04-15T14:48:45;19.00;;;15.40;;
8887;SDS011;4480;52.370;9.748;2023-04-15T14:51:12;18.87;;;15.50;;
8887;SDS011;4480;52.370;9.748;2023-04-15T14:53:39;18.47;;;15.47;;
8887;SDS011;4480;52.370;9.748;2023-04-15T14:56:07;18.90;;;15.43;;
8887;SDS011;4480;52.370;9.748;2023-04-15T14:58:34;17.93;;;14.70;;
8887;SDS011;4480;52.370;9.748;2023-04-15T15:01:00;20.23;;;15.33;;
8887;SDS011;4480;52.370;9.748;2023-04-15T15:03:28;17.63;;;14.73;;
8887;SDS011;4480;52.370;9.748;2023-04-15T15:05:55;20.33;;;16.57;;
8887;SDS011;4480;52.370;9.748;2023-04-15T15:08:22;19.63;;;14.57;;